createdAt,value
2023-05-18T00:02:31.731Z,3.08
2023-05-18T00:05:34.741Z,2.93
2023-05-18T00:08:37.317Z,3.23
2023-05-18T00:11:41.297Z,3.05
2023-05-18T00:14:43.162Z,3.08
2023-05-18T00:17:49.573Z,2.90
2023-05-18T00:20:51.636Z,2.70
2023-05-18T00:23:53.432Z,3.17
2023-05-18T00:26:55.336Z,2.85
2023-05-18T00:29:57.612Z,2.97
2023-05-18T00:32:59.633Z,3.35
2023-05-18T00:36:01.531Z,2.90
2023-05-18T00:39:04.750Z,3.27
2023-05-18T00:42:06.688Z,2.83
2023-05-18T00:45:08.981Z,3.15
2023-05-18T00:48:10.844Z,3.22
2023-05-18T00:51:12.737Z,2.90
2023-05-18T00:54:14.663Z,2.93
2023-05-18T00:57:19.221Z,2.83
2023-05-18T01:00:21.475Z,3.17
2023-05-18T01:03:27.393Z,2.83
2023-05-18T01:06:33.121Z,2.80
2023-05-18T01:09:35.010Z,2.60
2023-05-18T01:12:57.176Z,3.05
2023-05-18T01:15:59.020Z,2.67
2023-05-18T01:19:05.906Z,2.92
2023-05-18T01:22:25.059Z,3.00
2023-05-18T01:25:47.328Z,3.03
2023-05-18T01:28:49.277Z,3.08
2023-05-18T01:31:51.442Z,3.05
2023-05-18T01:34:53.333Z,2.95
2023-05-18T01:37:55.190Z,2.80
2023-05-18T01:41:21.467Z,2.77
2023-05-18T01:44:33.869Z,2.97
2023-05-18T01:47:35.862Z,3.30
2023-05-18T01:50:39.183Z,3.10
2023-05-18T01:53:46.334Z,2.90
2023-05-18T01:56:48.582Z,2.83
2023-05-18T01:59:51.357Z,2.80
2023-05-18T02:02:53.459Z,2.90
2023-05-18T02:05:56.542Z,3.10
2023-05-18T02:08:58.421Z,3.50
2023-05-18T02:12:00.328Z,3.30
2023-05-18T02:15:05.765Z,3.08
2023-05-18T02:18:08.614Z,2.70
2023-05-18T02:21:10.591Z,3.00
2023-05-18T02:24:12.909Z,3.63
2023-05-18T02:27:15.538Z,3.20
2023-05-18T02:30:17.532Z,3.45
2023-05-18T02:33:19.892Z,2.65
2023-05-18T02:36:22.807Z,3.13
2023-05-18T02:39:24.738Z,3.03
2023-05-18T02:42:26.599Z,3.20
2023-05-18T02:45:28.839Z,3.47
2023-05-18T02:48:30.806Z,3.60
2023-05-18T02:51:32.735Z,3.50
2023-05-18T02:54:34.554Z,2.93
2023-05-18T02:57:36.429Z,3.10
2023-05-18T03:00:38.337Z,2.88
2023-05-18T03:03:42.568Z,3.30
2023-05-18T03:06:46.706Z,3.83
2023-05-18T03:09:48.659Z,3.50
2023-05-18T03:12:50.729Z,3.50
2023-05-18T03:15:52.688Z,3.40
2023-05-18T03:18:55.849Z,3.35
2023-05-18T03:21:58.164Z,3.70
2023-05-18T03:25:02.553Z,3.50
2023-05-18T03:28:05.729Z,3.40
2023-05-18T03:31:07.670Z,3.47
2023-05-18T03:34:09.612Z,3.40
2023-05-18T03:37:11.534Z,3.47
2023-05-18T03:40:14.831Z,3.43
2023-05-18T03:43:16.737Z,3.47
2023-05-18T03:46:18.627Z,4.18
2023-05-18T03:49:20.759Z,4.05
2023-05-18T03:52:24.253Z,4.10
2023-05-18T03:55:26.608Z,3.50
2023-05-18T03:58:29.336Z,3.80
2023-05-18T04:01:34.211Z,4.78
2023-05-18T04:04:36.156Z,4.38
2023-05-18T04:07:44.188Z,4.18
2023-05-18T04:10:46.285Z,4.23
2023-05-18T04:13:48.318Z,3.83
2023-05-18T04:16:51.157Z,4.00
2023-05-18T04:19:53.129Z,4.43
2023-05-18T04:22:55.679Z,4.03
2023-05-18T04:25:57.708Z,4.50
2023-05-18T04:29:00.468Z,4.60
2023-05-18T04:32:02.480Z,4.15
2023-05-18T04:35:06.759Z,3.90
2023-05-18T04:38:08.747Z,4.20
2023-05-18T04:41:10.632Z,4.47
2023-05-18T04:44:14.285Z,4.57
2023-05-18T04:47:16.149Z,4.43
2023-05-18T04:50:18.163Z,4.03
2023-05-18T04:53:21.834Z,3.92
2023-05-18T04:56:23.666Z,4.60
2023-05-18T04:59:26.681Z,4.30
2023-05-18T05:02:28.640Z,3.95
2023-05-18T05:05:30.886Z,3.78
2023-05-18T05:08:32.926Z,3.83
2023-05-18T05:11:35.195Z,4.50
2023-05-18T05:14:37.078Z,4.00
2023-05-18T05:17:39.018Z,4.10
2023-05-18T05:20:40.909Z,3.53
2023-05-18T05:23:43.038Z,3.95
2023-05-18T05:26:44.953Z,4.73
2023-05-18T05:29:47.370Z,4.17
2023-05-18T05:32:49.445Z,4.00
2023-05-18T05:35:51.610Z,4.68
2023-05-18T05:38:53.643Z,4.60
2023-05-18T05:41:56.359Z,3.97
2023-05-18T05:44:58.204Z,4.60
2023-05-18T05:48:00.299Z,4.22
2023-05-18T05:51:02.257Z,4.50
2023-05-18T05:54:04.546Z,5.07
2023-05-18T05:57:06.487Z,4.07
2023-05-18T06:00:10.756Z,3.70
2023-05-18T06:03:12.721Z,4.10
2023-05-18T06:06:15.025Z,4.43
2023-05-18T06:09:16.971Z,4.55
2023-05-18T06:12:18.964Z,4.10
2023-05-18T06:15:21.153Z,4.40
2023-05-18T06:18:22.989Z,4.15
2023-05-18T06:21:24.961Z,4.00
2023-05-18T06:24:27.241Z,3.70
2023-05-18T06:27:29.218Z,4.13
2023-05-18T06:30:34.110Z,3.83
2023-05-18T06:33:36.610Z,3.50
2023-05-18T06:36:39.356Z,3.67
2023-05-18T06:39:41.302Z,3.63
2023-05-18T06:42:44.935Z,3.03
2023-05-18T06:45:47.345Z,3.80
2023-05-18T06:48:49.225Z,3.92
2023-05-18T06:51:52.189Z,4.22
2023-05-18T06:54:54.068Z,4.20
2023-05-18T06:57:58.651Z,4.30
2023-05-18T07:01:01.434Z,3.60
2023-05-18T07:04:03.551Z,4.93
2023-05-18T07:07:05.856Z,4.50
2023-05-18T07:10:08.456Z,3.72
2023-05-18T07:13:10.441Z,3.40
2023-05-18T07:16:12.465Z,3.83
2023-05-18T07:19:15.223Z,3.40
2023-05-18T07:22:17.359Z,3.28
2023-05-18T07:25:19.352Z,3.67
2023-05-18T07:28:21.236Z,3.53
2023-05-18T07:31:24.406Z,3.70
2023-05-18T07:34:27.475Z,3.40
2023-05-18T07:37:29.393Z,3.70
2023-05-18T07:40:31.243Z,3.28
2023-05-18T07:43:33.184Z,3.33
2023-05-18T07:46:35.146Z,3.13
2023-05-18T07:49:39.272Z,2.75
2023-05-18T07:52:41.271Z,4.10
2023-05-18T07:55:43.249Z,3.40
2023-05-18T07:58:45.100Z,4.13
2023-05-18T08:01:49.367Z,3.70
2023-05-18T08:04:52.170Z,3.80
2023-05-18T08:07:54.183Z,4.40
2023-05-18T08:10:56.334Z,4.15
2023-05-18T08:13:58.439Z,4.40
2023-05-18T08:17:00.450Z,3.90
2023-05-18T08:20:03.319Z,3.75
2023-05-18T08:23:05.405Z,3.83
2023-05-18T08:26:10.053Z,3.75
2023-05-18T08:29:12.851Z,4.30
2023-05-18T08:32:15.093Z,3.93
2023-05-18T08:35:17.805Z,3.88
2023-05-18T08:38:19.715Z,3.70
2023-05-18T08:41:26.844Z,3.65
2023-05-18T08:45:00.275Z,3.37
2023-05-18T08:48:02.409Z,3.10
2023-05-18T08:51:04.792Z,2.90
2023-05-18T08:54:06.712Z,3.00
2023-05-18T08:57:12.523Z,3.50
2023-05-18T09:00:15.457Z,3.50
2023-05-18T09:03:17.548Z,3.27
2023-05-18T09:06:22.279Z,3.08
2023-05-18T09:09:26.061Z,2.85
2023-05-18T09:12:28.132Z,2.85
2023-05-18T09:15:30.453Z,3.20
2023-05-18T09:18:32.425Z,2.70
2023-05-18T09:21:34.739Z,2.63
2023-05-18T09:24:38.185Z,3.53
2023-05-18T09:27:40.144Z,3.05
2023-05-18T09:30:43.163Z,2.57
2023-05-18T09:33:45.901Z,2.60
2023-05-18T09:36:49.822Z,2.13
2023-05-18T09:40:02.705Z,2.05
2023-05-18T09:43:07.693Z,2.05
2023-05-18T09:46:11.000Z,1.87
2023-05-18T09:49:12.955Z,2.00
2023-05-18T09:52:15.093Z,1.83
2023-05-18T09:55:17.670Z,1.80
2023-05-18T09:58:19.628Z,2.20
2023-05-18T10:01:21.992Z,1.80
2023-05-18T10:04:24.118Z,1.93
2023-05-18T10:07:26.165Z,1.65
2023-05-18T10:10:29.931Z,1.92
2023-05-18T10:13:32.317Z,1.95
2023-05-18T10:16:34.433Z,1.90
2023-05-18T10:19:36.596Z,2.13
2023-05-18T10:22:38.525Z,1.83
2023-05-18T10:25:40.946Z,2.25
2023-05-18T10:28:44.822Z,2.20
2023-05-18T10:31:46.776Z,2.30
2023-05-18T10:34:48.666Z,2.20
2023-05-18T10:37:50.807Z,2.28
2023-05-18T10:40:54.016Z,2.28
2023-05-18T10:44:01.959Z,2.40
2023-05-18T10:47:07.299Z,2.70
2023-05-18T10:50:10.497Z,2.30
2023-05-18T10:53:12.811Z,2.40
2023-05-18T10:56:16.185Z,2.40
2023-05-18T10:59:19.105Z,2.30
2023-05-18T11:02:21.013Z,2.33
2023-05-18T11:05:26.476Z,1.73
2023-05-18T11:08:28.535Z,2.67
2023-05-18T11:11:30.712Z,2.47
2023-05-18T11:14:32.889Z,2.00
2023-05-18T11:17:36.147Z,2.40
2023-05-18T11:20:38.536Z,2.10
2023-05-18T11:23:41.401Z,1.92
2023-05-18T11:26:44.073Z,2.30
2023-05-18T11:29:46.841Z,2.50
2023-05-18T11:32:51.316Z,2.53
2023-05-18T11:36:22.060Z,2.30
2023-05-18T11:39:24.864Z,2.03
2023-05-18T11:42:32.409Z,2.75
2023-05-18T11:45:35.425Z,2.58
2023-05-18T11:48:37.949Z,2.30
2023-05-18T11:52:03.154Z,2.20
2023-05-18T11:55:05.557Z,2.70
2023-05-18T11:58:08.096Z,2.53
2023-05-18T12:01:12.574Z,2.63
2023-05-18T12:04:14.635Z,2.90
2023-05-18T12:07:17.849Z,2.67
2023-05-18T12:10:19.924Z,2.67
2023-05-18T12:13:21.829Z,2.83
2023-05-18T12:16:24.057Z,2.58
2023-05-18T12:19:26.296Z,2.92
2023-05-18T12:22:28.440Z,2.20
2023-05-18T12:25:30.473Z,3.00
2023-05-18T12:28:32.557Z,3.50
2023-05-18T12:31:34.585Z,2.85
2023-05-18T12:34:37.009Z,2.33
2023-05-18T12:37:46.264Z,2.43
2023-05-18T12:40:49.082Z,2.30
2023-05-18T12:43:52.287Z,3.00
2023-05-18T12:46:54.640Z,2.30
2023-05-18T12:49:56.588Z,2.83
2023-05-18T12:52:58.784Z,2.70
2023-05-18T12:56:01.911Z,2.75
2023-05-18T12:59:04.858Z,2.90
2023-05-18T13:02:07.019Z,2.63
2023-05-18T13:05:10.523Z,3.00
2023-05-18T13:08:20.078Z,3.03
2023-05-18T13:11:25.231Z,3.45
2023-05-18T13:14:27.378Z,3.47
2023-05-18T13:17:29.818Z,3.00
2023-05-18T13:20:37.000Z,3.38
2023-05-18T13:23:40.048Z,2.90
2023-05-18T13:26:42.057Z,2.40
2023-05-18T13:29:43.999Z,2.63
2023-05-18T13:32:46.167Z,2.53
2023-05-18T13:35:50.107Z,2.60
2023-05-18T13:38:52.857Z,2.63
2023-05-18T13:41:54.780Z,2.67
2023-05-18T13:44:56.750Z,2.80
2023-05-18T13:47:59.264Z,2.85
2023-05-18T13:51:01.298Z,2.72
2023-05-18T13:54:03.877Z,2.50
2023-05-18T13:57:08.207Z,2.85
2023-05-18T14:00:13.280Z,3.65
2023-05-18T14:03:15.540Z,3.45
2023-05-18T14:06:17.566Z,2.90
2023-05-18T14:09:19.750Z,2.93
2023-05-18T14:12:21.699Z,3.25
2023-05-18T14:15:23.605Z,3.33
2023-05-18T14:18:25.497Z,3.10
2023-05-18T14:21:27.371Z,3.88
2023-05-18T14:24:29.270Z,3.27
2023-05-18T14:27:31.413Z,2.80
2023-05-18T14:30:33.419Z,3.40
2023-05-18T14:33:35.312Z,3.50
2023-05-18T14:36:37.436Z,3.60
2023-05-18T14:39:39.404Z,3.83
2023-05-18T14:42:41.515Z,3.70
2023-05-18T14:45:46.420Z,3.55
2023-05-18T14:48:52.631Z,3.60
2023-05-18T14:51:54.660Z,3.83
2023-05-18T14:54:56.587Z,3.80
2023-05-18T14:57:58.818Z,3.40
2023-05-18T15:01:00.699Z,3.72
2023-05-18T15:04:02.748Z,4.03
2023-05-18T15:07:06.010Z,3.83
2023-05-18T15:10:08.554Z,3.50
2023-05-18T15:13:10.631Z,3.75
2023-05-18T15:16:13.102Z,3.58
2023-05-18T15:19:15.062Z,3.58
2023-05-18T15:22:17.159Z,3.53
2023-05-18T15:25:19.234Z,2.70
2023-05-18T15:28:21.161Z,2.80
2023-05-18T15:31:23.153Z,3.15
2023-05-18T15:34:25.189Z,3.10
2023-05-18T15:37:27.099Z,3.47
2023-05-18T15:40:29.405Z,3.67
2023-05-18T15:43:31.614Z,3.85
2023-05-18T15:46:35.778Z,3.83
2023-05-18T15:49:37.704Z,3.67
2023-05-18T15:52:39.777Z,3.90
2023-05-18T15:55:41.977Z,4.30
2023-05-18T15:58:43.853Z,4.47
2023-05-18T16:01:45.832Z,4.18
2023-05-18T16:04:47.945Z,4.03
2023-05-18T16:07:49.997Z,3.90
2023-05-18T16:10:51.965Z,3.50
2023-05-18T16:13:57.118Z,3.83
2023-05-18T16:16:59.423Z,4.05
2023-05-18T16:20:03.525Z,4.10
2023-05-18T16:23:06.052Z,4.78
2023-05-18T16:26:08.151Z,4.10
2023-05-18T16:29:10.121Z,4.53
2023-05-18T16:32:12.010Z,4.65
2023-05-18T16:35:13.865Z,4.40
2023-05-18T16:38:16.007Z,4.47
2023-05-18T16:41:18.243Z,4.63
2023-05-18T16:44:20.303Z,4.20
2023-05-18T16:47:22.511Z,3.97
2023-05-18T16:50:24.437Z,4.03
2023-05-18T16:53:26.441Z,4.47
2023-05-18T16:56:29.989Z,3.50
2023-05-18T16:59:34.533Z,4.53
2023-05-18T17:02:38.379Z,4.13
2023-05-18T17:05:40.772Z,4.05
2023-05-18T17:08:42.740Z,3.88
2023-05-18T17:11:46.076Z,4.20
2023-05-18T17:14:50.000Z,3.92
2023-05-18T17:17:53.326Z,3.90
2023-05-18T17:20:55.203Z,3.55
2023-05-18T17:23:57.159Z,4.35
2023-05-18T17:26:59.045Z,4.10
2023-05-18T17:30:01.096Z,4.03
2023-05-18T17:33:03.081Z,4.15
2023-05-18T17:36:05.232Z,3.80
2023-05-18T17:39:07.171Z,4.32
2023-05-18T17:42:09.149Z,4.37
2023-05-18T17:45:11.339Z,4.40
2023-05-18T17:48:13.279Z,4.53
2023-05-18T17:51:15.740Z,4.50
2023-05-18T17:54:17.986Z,5.38
2023-05-18T17:57:20.068Z,4.80
2023-05-18T18:00:22.732Z,4.38
2023-05-18T18:03:24.856Z,4.35
2023-05-18T18:06:26.990Z,4.00
2023-05-18T18:09:28.918Z,4.20
2023-05-18T18:12:30.865Z,3.90
2023-05-18T18:15:33.107Z,4.07
2023-05-18T18:18:39.353Z,4.18
2023-05-18T18:21:41.297Z,4.70
2023-05-18T18:24:43.172Z,4.38
2023-05-18T18:27:45.001Z,4.03
2023-05-18T18:30:47.481Z,4.22
2023-05-18T18:33:50.997Z,4.35
2023-05-18T18:36:52.875Z,4.05
2023-05-18T18:39:54.882Z,3.80
2023-05-18T18:42:56.736Z,4.17
2023-05-18T18:45:59.294Z,4.22
2023-05-18T18:49:01.319Z,4.40
2023-05-18T18:52:03.359Z,3.80
2023-05-18T18:55:05.723Z,4.18
2023-05-18T18:58:08.377Z,3.93
2023-05-18T19:01:10.387Z,3.75
2023-05-18T19:04:13.244Z,4.10
2023-05-18T19:07:15.061Z,4.28
2023-05-18T19:10:17.052Z,3.90
2023-05-18T19:13:18.950Z,4.17
2023-05-18T19:16:21.927Z,3.97
2023-05-18T19:19:23.999Z,4.40
2023-05-18T19:22:26.174Z,4.35
2023-05-18T19:25:30.190Z,4.53
2023-05-18T19:28:32.426Z,4.17
2023-05-18T19:31:36.071Z,4.18
2023-05-18T19:34:38.414Z,3.78
2023-05-18T19:37:40.475Z,4.07
2023-05-18T19:40:42.441Z,4.00
2023-05-18T19:43:44.378Z,4.40
2023-05-18T19:46:46.998Z,4.18
2023-05-18T19:49:48.847Z,4.22
2023-05-18T19:52:50.929Z,4.45
2023-05-18T19:55:52.792Z,4.70
2023-05-18T19:58:54.918Z,4.17
2023-05-18T20:01:58.084Z,4.10
2023-05-18T20:05:00.886Z,4.18
2023-05-18T20:08:03.206Z,4.00
2023-05-18T20:11:05.172Z,4.68
2023-05-18T20:14:07.014Z,4.97
2023-05-18T20:17:09.252Z,5.00
2023-05-18T20:20:12.525Z,5.45
2023-05-18T20:23:14.420Z,5.25
2023-05-18T20:26:17.239Z,4.82
2023-05-18T20:29:19.136Z,5.87
2023-05-18T20:32:20.968Z,5.40
2023-05-18T20:35:22.835Z,5.15
2023-05-18T20:38:26.171Z,5.18
2023-05-18T20:41:28.646Z,5.78
2023-05-18T20:44:31.623Z,5.37
2023-05-18T20:47:33.844Z,5.60
2023-05-18T20:50:35.668Z,5.78
2023-05-18T20:53:37.458Z,5.25
2023-05-18T20:56:39.262Z,5.47
2023-05-18T20:59:41.194Z,5.97
2023-05-18T21:02:47.090Z,5.68
2023-05-18T21:05:51.876Z,6.07
2023-05-18T21:08:53.705Z,6.03
2023-05-18T21:11:55.482Z,5.32
2023-05-18T21:14:57.488Z,5.10
2023-05-18T21:17:59.439Z,5.35
2023-05-18T21:21:02.240Z,6.20
2023-05-18T21:24:04.163Z,5.90
2023-05-18T21:27:06.401Z,5.43
2023-05-18T21:30:09.011Z,6.07
2023-05-18T21:33:11.030Z,6.07
2023-05-18T21:36:13.065Z,6.13
2023-05-18T21:39:18.256Z,6.20
2023-05-18T21:42:20.053Z,7.00
2023-05-18T21:45:22.828Z,6.67
2023-05-18T21:48:24.696Z,6.38
2023-05-18T21:51:26.733Z,6.43
2023-05-18T21:54:33.216Z,6.43
2023-05-18T21:57:35.348Z,6.78
2023-05-18T22:00:38.528Z,6.80
2023-05-18T22:03:40.680Z,6.30
2023-05-18T22:06:42.538Z,7.32
2023-05-18T22:09:44.564Z,6.57
2023-05-18T22:12:46.890Z,6.85
2023-05-18T22:15:48.990Z,6.60
2023-05-18T22:18:51.020Z,6.80
2023-05-18T22:21:53.880Z,6.72
2023-05-18T22:24:55.808Z,7.25
2023-05-18T22:27:57.720Z,7.20
2023-05-18T22:30:59.583Z,6.80
2023-05-18T22:34:01.589Z,6.82
2023-05-18T22:37:03.725Z,6.85
2023-05-18T22:40:06.829Z,6.57
2023-05-18T22:43:08.651Z,7.63
2023-05-18T22:46:11.134Z,7.10
2023-05-18T22:49:13.649Z,7.25
2023-05-18T22:52:16.601Z,7.28
2023-05-18T22:55:18.657Z,6.47
2023-05-18T22:58:20.650Z,6.47
2023-05-18T23:01:22.694Z,6.90
2023-05-18T23:04:24.668Z,6.53
2023-05-18T23:07:26.640Z,7.25
2023-05-18T23:10:28.597Z,6.38
2023-05-18T23:13:33.273Z,6.82
2023-05-18T23:16:35.399Z,7.10
2023-05-18T23:19:37.616Z,7.30
2023-05-18T23:22:39.616Z,7.75
2023-05-18T23:25:41.570Z,6.85
2023-05-18T23:28:43.400Z,8.07
2023-05-18T23:31:46.661Z,7.73
2023-05-18T23:34:49.582Z,7.38
2023-05-18T23:37:52.016Z,8.05
2023-05-18T23:40:53.896Z,8.05
2023-05-18T23:43:56.481Z,7.85
2023-05-18T23:46:58.674Z,6.93
2023-05-18T23:50:00.838Z,7.65
2023-05-18T23:53:03.636Z,7.95
2023-05-18T23:56:06.014Z,8.38
2023-05-18T23:59:08.033Z,8.10
